Time;durP1;ratioP1;P1;durP2;ratioP2;P2;SDS_P1;SDS_P2;PMS_P1;PMS_P2;Temp;Humidity;BMP_temperature;BMP_pressure;BME280_temperature;BME280_humidity;BME280_pressure;Samples;Min_cycle;Max_cycle;Signal;HPM_P1;HPM_P2
2023/04/12 00:01:39;;;;;;;7.47;6.77;;;;;;;12.44;64.59;98320.25;5125891;27;20210;-49
2023/04/12 00:04:27;;;;;;;8.07;7.33;;;;;;;12.41;64.50;98313.47;5123639;27;20278;-49
2023/04/12 00:07:36;;;;;;;7.47;6.87;;;;;;;12.40;64.23;98316.16;5115020;27;20602;-48
2023/04/12 00:10:32;;;;;;;6.67;6.13;;;;;;;12.37;64.25;98314.56;5118884;28;20187;-48
2023/04/12 00:13:25;;;;;;;7.27;6.60;;;;;;;12.40;63.90;98318.75;5118005;28;20198;-49
2023/04/12 00:19:36;;;;;;;7.03;6.43;;;;;;;12.34;64.16;98315.56;5118897;28;20737;-56
2023/04/12 00:22:29;;;;;;;7.20;6.53;;;;;;;12.32;64.15;98317.41;5119567;28;20190;-55
2023/04/12 00:25:05;;;;;;;8.70;6.80;;;;;;;12.35;64.09;98313.78;5115546;28;20686;-56
2023/04/12 00:27:54;;;;;;;8.10;7.03;;;;;;;12.34;64.20;98299.94;5119006;28;20212;-56
2023/04/12 00:30:43;;;;;;;7.27;6.57;;;;;;;12.33;64.37;98300.88;5117662;28;20598;-56
2023/04/12 00:39:24;;;;;;;7.57;6.90;;;;;;;12.28;63.92;98283.84;5116935;28;20282;-56
2023/04/12 00:42:18;;;;;;;7.50;6.80;;;;;;;12.29;64.00;98291.56;5111158;28;20210;-56
2023/04/12 00:45:08;;;;;;;7.40;6.60;;;;;;;12.26;64.16;98283.94;5122173;28;20195;-57
2023/04/12 00:51:04;;;;;;;8.23;7.23;;;;;;;12.22;64.23;98282.41;5116780;28;20242;-55
2023/04/12 00:54:09;;;;;;;7.03;6.33;;;;;;;12.21;64.21;98270.31;5121043;28;20198;-56
2023/04/12 00:57:04;;;;;;;8.20;6.80;;;;;;;12.30;64.12;98275.00;5116456;28;20281;-56
2023/04/12 00:59:59;;;;;;;6.77;6.23;;;;;;;12.31;63.80;98268.03;5117519;28;20688;-56
2023/04/12 01:02:48;;;;;;;6.47;5.97;;;;;;;12.19;64.08;98247.94;5114820;28;20190;-55
2023/04/12 01:05:36;;;;;;;7.03;6.33;;;;;;;12.26;64.52;98277.88;5116673;28;20741;-54
2023/04/12 01:08:36;;;;;;;6.50;6.00;;;;;;;12.22;64.74;98277.22;5119949;27;20558;-56
2023/04/12 01:11:27;;;;;;;7.00;6.30;;;;;;;12.20;65.05;98258.25;5118491;27;20194;-56
2023/04/12 01:14:27;;;;;;;7.33;6.13;;;;;;;12.24;65.07;98264.13;5122297;27;20277;-55
2023/04/12 01:17:19;;;;;;;6.80;6.30;;;;;;;12.22;65.30;98251.19;5120037;27;20254;-55
2023/04/12 01:20:20;;;;;;;7.10;6.40;;;;;;;12.21;65.17;98249.50;5115661;27;20195;-56
2023/04/12 01:23:29;;;;;;;7.30;6.60;;;;;;;12.19;65.27;98235.75;5112350;28;20189;-56
2023/04/12 01:26:32;;;;;;;7.07;6.47;;;;;;;12.23;65.24;98241.63;5111341;28;20191;-55
2023/04/12 01:29:31;;;;;;;7.27;6.53;;;;;;;12.25;65.28;98235.44;5111740;28;20627;-57
2023/04/12 01:32:24;;;;;;;6.80;6.20;;;;;;;12.19;65.33;98220.16;5123702;27;20694;-56
2023/04/12 01:35:09;;;;;;;6.60;6.00;;;;;;;12.26;65.46;98224.09;5120781;27;20194;-55
2023/04/12 01:38:00;;;;;;;8.20;6.67;;;;;;;12.25;65.70;98231.97;5128453;27;20205;-56
2023/04/12 01:43:49;;;;;;;7.13;6.53;;;;;;;12.24;66.33;98231.16;5120727;27;20198;-56
2023/04/12 01:46:45;;;;;;;6.57;6.07;;;;;;;12.22;66.58;98235.59;5118678;27;20683;-56
2023/04/12 01:49:54;;;;;;;7.80;6.43;;;;;;;12.24;66.75;98225.94;5114876;27;20282;-48
2023/04/12 01:52:52;;;;;;;7.50;6.80;;;;;;;12.23;67.27;98236.44;5121286;27;20486;-47
2023/04/12 01:55:46;;;;;;;7.43;6.83;;;;;;;12.20;67.72;98231.38;5120346;27;20202;-54
2023/04/12 02:01:46;;;;;;;7.93;7.13;;;;;;;12.21;67.90;98236.50;5123891;27;20209;-55
2023/04/12 02:04:34;;;;;;;7.73;7.03;;;;;;;12.19;68.56;98238.34;5118619;27;20594;-47
2023/04/12 02:07:19;;;;;;;7.67;7.07;;;;;;;12.23;68.44;98239.03;5120387;27;20689;-56
2023/04/12 02:10:07;;;;;;;8.60;7.30;;;;;;;12.22;68.40;98235.59;5118288;27;20200;-47
2023/04/12 02:13:01;;;;;;;7.27;6.67;;;;;;;12.20;68.50;98236.59;5118006;27;20284;-48
2023/04/12 02:15:43;;;;;;;7.10;6.50;;;;;;;12.24;68.40;98244.16;5122256;27;20194;-56
2023/04/12 02:18:53;;;;;;;8.27;7.10;;;;;;;12.20;68.35;98232.22;5122297;27;20194;-56
2023/04/12 02:21:58;;;;;;;8.53;6.90;;;;;;;12.28;68.38;98237.88;5118363;27;20211;-56
2023/04/12 02:25:01;;;;;;;7.60;6.90;;;;;;;12.29;68.00;98247.34;5110683;28;20205;-55
2023/04/12 02:27:50;;;;;;;7.83;7.17;;;;;;;12.25;68.08;98243.22;5110716;28;20651;-48
2023/04/12 02:30:47;;;;;;;7.80;7.10;;;;;;;12.24;68.51;98246.75;5110509;28;20228;-49
2023/04/12 02:33:39;;;;;;;8.10;7.30;;;;;;;12.26;67.70;98241.47;5117549;27;20190;-48
2023/04/12 02:36:34;;;;;;;8.30;7.47;;;;;;;12.23;67.26;98226.88;5118929;27;20252;-48
2023/04/12 02:39:24;;;;;;;8.20;7.40;;;;;;;12.26;67.18;98231.91;5120805;27;20715;-49
2023/04/12 02:42:20;;;;;;;8.47;7.57;;;;;;;12.23;66.94;98226.88;5119321;27;20304;-56
2023/04/12 02:45:06;;;;;;;7.70;7.00;;;;;;;12.23;67.12;98229.47;5121609;27;20189;-56
2023/04/12 02:47:48;;;;;;;8.87;7.97;;;;;;;12.24;67.16;98223.34;5124773;27;20197;-47
2023/04/12 02:50:48;;;;;;;9.97;8.10;;;;;;;12.21;67.47;98226.09;5119536;27;20213;-47
2023/04/12 02:53:58;;;;;;;;;;;;;;;;;;;;;
2023/04/12 02:56:56;;;;;;;8.37;7.57;;;;;;;12.12;67.97;98223.19;5111894;27;20208;-48
2023/04/12 02:59:29;;;;;;;7.70;7.03;;;;;;;12.12;68.23;98229.22;5121674;27;20194;-56
2023/04/12 03:02:18;;;;;;;7.70;7.10;;;;;;;12.09;68.31;98224.19;5128620;27;20218;-55
2023/04/12 03:05:08;;;;;;;8.10;7.30;;;;;;;12.09;68.32;98221.59;5121312;27;20194;-48
2023/04/12 03:07:51;;;;;;;8.00;7.20;;;;;;;12.06;68.14;98219.19;5122712;27;20190;-55
2023/04/12 03:10:51;;;;;;;8.27;7.50;;;;;;;12.04;68.42;98215.81;5117488;27;20194;-55
2023/04/12 03:13:35;;;;;;;8.07;7.37;;;;;;;11.98;68.34;98216.13;5107798;28;20191;-57
2023/04/12 03:16:37;;;;;;;8.40;7.40;;;;;;;11.95;68.24;98217.16;5107161;28;20282;-48
2023/04/12 03:19:27;;;;;;;6.97;6.27;;;;;;;11.98;67.74;98216.13;5108089;28;20285;-46
2023/04/12 03:22:25;;;;;;;7.90;6.60;;;;;;;12.03;67.03;98208.09;5110650;27;20717;-48
2023/04/12 03:25:16;;;;;;;7.30;6.70;;;;;;;12.09;66.59;98208.56;5121922;27;20573;-49
2023/04/12 03:28:20;;;;;;;7.53;6.67;;;;;;;12.13;66.00;98210.09;5130964;27;20589;-49
2023/04/12 03:33:50;;;;;;;8.63;6.73;;;;;;;12.17;65.14;98221.19;5145778;27;20225;-48
2023/04/12 03:36:34;;;;;;;7.87;7.17;;;;;;;12.16;65.77;98219.50;5151448;27;20228;-56
2023/04/12 03:39:05;;;;;;;8.40;6.97;;;;;;;12.23;65.75;98228.63;5139314;27;20618;-55
2023/04/12 03:41:45;;;;;;;7.40;6.70;;;;;;;12.24;65.39;98228.53;5108618;28;20330;-48
2023/04/12 03:44:27;;;;;;;9.07;7.77;;;;;;;12.23;65.42;98237.28;5108346;28;20677;-46
2023/04/12 03:47:02;;;;;;;9.67;6.90;;;;;;;12.24;65.60;98228.53;5108493;28;20222;-47
2023/04/12 03:49:47;;;;;;;7.77;7.10;;;;;;;12.28;65.49;98227.47;5109024;28;20221;-48
2023/04/12 03:52:27;;;;;;;7.87;6.90;;;;;;;12.27;65.25;98228.38;5108412;28;20249;-53
2023/04/12 03:55:02;;;;;;;8.40;6.77;;;;;;;12.30;64.99;98227.38;5110370;28;20273;-54
2023/04/12 03:57:35;;;;;;;8.17;7.37;;;;;;;12.28;65.31;98230.06;5108997;28;20297;-55
2023/04/12 04:00:12;;;;;;;9.03;7.20;;;;;;;12.33;64.90;98230.63;5118323;27;20232;-55
2023/04/12 04:02:48;;;;;;;8.20;7.13;;;;;;;12.25;65.33;98234.59;5121381;27;20244;-54
2023/04/12 04:05:22;;;;;;;8.20;7.40;;;;;;;12.10;65.84;98210.25;5119678;27;20225;-56
2023/04/12 04:08:03;;;;;;;8.83;7.70;;;;;;;12.21;65.84;98231.31;5109799;28;20305;-55
2023/04/12 04:10:55;;;;;;;8.80;7.83;;;;;;;12.28;65.89;98232.66;5109853;28;20784;-48
2023/04/12 04:13:31;;;;;;;8.90;7.90;;;;;;;12.17;67.06;98227.22;5107679;28;20305;-54
2023/04/12 04:16:18;;;;;;;8.53;7.73;;;;;;;12.21;67.84;98239.09;5110054;28;20214;-56
2023/04/12 04:18:54;;;;;;;9.97;8.53;;;;;;;12.23;68.17;98236.44;5109688;28;20287;-55
2023/04/12 04:21:32;;;;;;;8.83;7.93;;;;;;;12.24;68.49;98243.31;5115543;28;20264;-57
2023/04/12 04:24:10;;;;;;;9.57;8.20;;;;;;;12.21;68.64;98246.91;5120660;28;20197;-56
2023/04/12 04:26:49;;;;;;;8.80;7.90;;;;;;;12.18;68.85;98244.50;5124059;28;20666;-55
2023/04/12 04:29:30;;;;;;;8.50;7.70;;;;;;;12.25;68.62;98240.63;5118582;28;20186;-56
2023/04/12 04:32:14;;;;;;;10.43;8.53;;;;;;;12.27;68.71;98244.00;5118239;28;20186;-46
2023/04/12 04:35:06;;;;;;;9.57;8.53;;;;;;;12.32;68.59;98251.53;5116250;28;20618;-58
2023/04/12 04:37:51;;;;;;;11.77;7.47;;;;;;;12.27;68.54;98249.19;5130948;28;20190;-55
2023/04/12 04:40:25;;;;;;;8.67;7.80;;;;;;;12.32;68.50;98257.56;5130499;27;20280;-47
2023/04/12 04:43:14;;;;;;;8.83;7.73;;;;;;;12.32;68.47;98260.16;5133529;27;20656;-56
2023/04/12 04:49:15;;;;;;;10.60;8.30;;;;;;;12.44;67.66;98257.81;5135142;27;20618;-49
2023/04/12 04:52:06;;;;;;;9.80;8.80;;;;;;;12.49;67.16;98269.63;5133325;27;20190;-56
2023/04/12 04:55:05;;;;;;;10.73;8.40;;;;;;;12.56;66.96;98259.72;5134773;27;20217;-56
2023/04/12 04:58:04;;;;;;;8.67;7.80;;;;;;;12.65;66.36;98261.78;5133806;27;20284;-56
2023/04/12 05:00:56;;;;;;;10.97;8.53;;;;;;;12.78;65.82;98269.72;5134290;27;20200;-56
2023/04/12 05:03:51;;;;;;;9.70;8.10;;;;;;;12.78;65.63;98257.56;5134516;27;20190;-48
2023/04/12 05:06:57;;;;;;;11.87;8.90;;;;;;;12.96;65.10;98259.13;5132775;27;20316;-48
2023/04/12 05:09:47;;;;;;;11.73;8.87;;;;;;;13.15;64.53;98252.84;5132683;27;20662;-49
2023/04/12 05:12:30;;;;;;;10.77;8.23;;;;;;;13.33;64.01;98257.78;5133167;27;20243;-57
2023/04/12 05:15:19;;;;;;;15.00;9.70;;;;;;;13.55;63.21;98249.50;5133743;27;20200;-56
2023/04/12 05:18:04;;;;;;;11.13;9.17;;;;;;;13.77;62.88;98252.47;5131984;27;20198;-48
2023/04/12 05:21:00;;;;;;;9.40;8.40;;;;;;;14.01;61.92;98264.91;5133612;27;20200;-48
2023/04/12 05:23:58;;;;;;;11.53;9.50;;;;;;;14.29;60.91;98259.66;5132220;27;20662;-47
2023/04/12 05:27:02;;;;;;;15.23;8.60;;;;;;;14.50;60.37;98263.53;5133044;27;20198;-48
2023/04/12 05:29:53;;;;;;;12.53;9.47;;;;;;;14.51;59.99;98252.16;5132912;27;20197;-47
2023/04/12 05:32:20;;;;;;;13.73;9.50;;;;;;;14.49;60.15;98277.50;5122655;27;20350;-47
2023/04/12 05:34:48;;;;;;;12.73;9.97;;;;;;;14.60;60.52;98273.38;5121543;27;20186;-57
2023/04/12 05:37:15;;;;;;;14.30;10.33;;;;;;;14.82;60.05;98263.19;5123349;27;20212;-48
2023/04/12 05:39:43;;;;;;;13.53;10.70;;;;;;;14.92;59.16;98269.47;5120274;27;20229;-48
2023/04/12 05:42:11;;;;;;;10.27;9.27;;;;;;;14.95;59.31;98269.28;5118791;27;20224;-49
2023/04/12 05:44:39;;;;;;;12.23;10.33;;;;;;;14.99;59.49;98264.69;5121416;27;20227;-56
2023/04/12 05:47:06;;;;;;;14.60;9.80;;;;;;;15.13;58.92;98268.03;5118907;27;20210;-56
2023/04/12 05:49:33;;;;;;;13.33;10.43;;;;;;;15.14;58.82;98274.94;5117694;27;20230;-55
2023/04/12 05:52:00;;;;;;;11.47;10.23;;;;;;;15.28;58.20;98276.66;5121502;27;20237;-49
2023/04/12 05:54:27;;;;;;;13.93;10.40;;;;;;;15.20;58.41;98278.94;5119336;27;20226;-56
2023/04/12 05:57:15;;;;;;;14.53;10.30;;;;;;;15.21;58.65;98280.63;5127717;27;20197;-57
2023/04/12 06:00:15;;;;;;;13.20;11.23;;;;;;;15.24;58.70;98276.00;5111756;28;20203;-48
2023/04/12 06:03:10;;;;;;;13.87;10.80;;;;;;;15.60;57.84;98272.69;5113228;28;20222;-56
2023/04/12 06:06:05;;;;;;;15.43;11.93;;;;;;;15.88;56.84;98276.03;5111111;28;20235;-56
2023/04/12 06:09:01;;;;;;;14.03;11.23;;;;;;;16.23;56.10;98273.53;5113090;28;20194;-56
2023/04/12 06:11:52;;;;;;;15.17;12.17;;;;;;;16.51;55.14;98273.19;5112301;28;20587;-57
2023/04/12 06:14:50;;;;;;;17.10;11.97;;;;;;;16.92;53.62;98279.84;5111409;28;20198;-57
2023/04/12 06:17:38;;;;;;;19.90;12.60;;;;;;;17.00;53.69;98278.34;5112487;28;20199;-58
2023/04/12 06:20:19;;;;;;;19.23;11.83;;;;;;;17.39;52.43;98295.47;5111660;28;20252;-56
2023/04/12 06:23:06;;;;;;;14.83;12.00;;;;;;;17.51;51.99;98292.84;5111073;28;20586;-61
2023/04/12 06:25:49;;;;;;;15.83;12.07;;;;;;;17.25;52.57;98286.97;5112367;27;20236;-61
2023/04/12 06:28:19;;;;;;;15.40;12.10;;;;;;;16.98;53.09;98292.50;5111802;28;20770;-56
2023/04/12 06:31:01;;;;;;;14.03;11.50;;;;;;;16.62;53.89;98294.25;5120741;27;20222;-58
2023/04/12 06:33:31;;;;;;;20.17;13.57;;;;;;;16.28;55.23;98295.81;5131179;27;20193;-57
2023/04/12 06:36:15;;;;;;;13.10;11.77;;;;;;;16.22;55.75;98301.50;5125203;27;20285;-56
2023/04/12 06:38:50;;;;;;;26.10;13.03;;;;;;;16.27;55.32;98298.53;5112029;28;20194;-57
2023/04/12 06:41:34;;;;;;;15.90;11.67;;;;;;;16.21;54.57;98304.22;5111650;28;20190;-57
2023/04/12 06:44:13;;;;;;;16.20;12.40;;;;;;;16.06;55.36;98305.28;5111850;28;20205;-57
2023/04/12 06:47:06;;;;;;;16.87;12.20;;;;;;;16.02;55.81;98301.22;5111382;28;20191;-56
2023/04/12 06:49:57;;;;;;;13.00;10.03;;;;;;;16.06;56.25;98305.28;5112098;28;20671;-55
2023/04/12 06:52:45;;;;;;;15.17;11.03;;;;;;;15.97;56.38;98299.75;5111191;28;20248;-57
2023/04/12 06:55:17;;;;;;;14.63;11.77;;;;;;;15.91;56.69;98305.41;5109847;28;20591;-56
2023/04/12 06:57:58;;;;;;;15.33;12.53;;;;;;;15.77;56.15;98304.72;5109726;28;20248;-49
2023/04/12 07:00:39;;;;;;;12.43;10.37;;;;;;;15.73;54.79;98317.16;5106985;28;20221;-47
2023/04/12 07:03:36;;;;;;;11.30;9.20;;;;;;;15.59;54.40;98312.03;5110299;28;20767;-47
2023/04/12 07:06:10;;;;;;;10.50;8.87;;;;;;;15.59;53.76;98317.25;5109694;28;20301;-56
2023/04/12 07:08:39;;;;;;;10.43;8.73;;;;;;;15.69;53.38;98318.31;5110435;28;20201;-55
2023/04/12 07:11:12;;;;;;;16.50;12.83;;;;;;;15.83;52.63;98318.19;5110802;27;20583;-57
2023/04/12 07:14:02;;;;;;;25.30;16.93;;;;;;;15.90;50.84;98316.00;5119382;27;20190;-56
2023/04/12 07:16:39;;;;;;;8.73;7.83;;;;;;;15.94;49.98;98320.91;5125695;27;20198;-57
2023/04/12 07:19:32;;;;;;;8.23;7.33;;;;;;;16.06;49.52;98313.97;5121404;27;20194;-48
2023/04/12 07:22:08;;;;;;;10.77;7.50;;;;;;;16.32;48.89;98314.75;5117079;27;20215;-48
2023/04/12 07:24:36;;;;;;;10.23;6.87;;;;;;;17.29;47.04;98312.84;5119384;27;20284;-47
2023/04/12 07:27:20;;;;;;;7.00;5.70;;;;;;;17.89;44.26;98317.03;5118905;27;20285;-48
2023/04/12 07:30:03;;;;;;;7.30;5.80;;;;;;;17.93;42.01;98315.00;5121193;27;20194;-56
2023/04/12 07:32:53;;;;;;;5.83;3.33;;;;;;;17.83;41.32;98317.50;5122261;27;20194;-56
2023/04/12 07:35:46;;;;;;;5.67;3.73;;;;;;;18.15;40.33;98304.50;5117312;27;20641;-57
2023/04/12 07:38:39;;;;;;;4.38;3.05;;;;;;;19.52;38.22;98315.16;5119852;27;20202;-57
2023/04/12 07:41:18;;;;;;;2.40;2.20;;;;;;;20.65;34.90;98331.72;5120692;27;20216;-56
2023/04/12 07:43:59;;;;;;;1.70;1.60;;;;;;;21.42;33.39;98333.56;5115643;27;20220;-56
2023/04/12 07:46:41;;;;;;;5.45;1.95;;;;;;;22.47;31.98;98327.09;5122074;27;20202;-57
2023/04/12 07:49:18;;;;;;;2.80;2.50;;;;;;;23.36;31.08;98320.06;5121821;27;20194;-56
2023/04/12 07:51:51;;;;;;;2.28;2.03;;;;;;;24.81;29.45;98318.34;5120841;27;20286;-56
2023/04/12 07:54:33;;;;;;;3.15;2.05;;;;;;;26.13;27.48;98321.59;5114960;27;20274;-50
2023/04/12 07:57:08;;;;;;;3.40;1.83;;;;;;;26.61;26.47;98312.63;5116357;27;20233;-51
2023/04/12 07:59:51;;;;;;;3.13;1.98;;;;;;;26.63;26.24;98308.78;5109653;28;20194;-49
2023/04/12 08:02:38;;;;;;;9.52;2.97;;;;;;;27.12;25.42;98292.50;5106914;28;20226;-49
2023/04/12 08:05:10;;;;;;;7.22;3.47;;;;;;;26.74;25.76;98279.09;5113671;27;20654;-49
2023/04/12 08:08:04;;;;;;;6.47;2.70;;;;;;;27.23;24.84;98294.72;5127315;27;20205;-51
2023/04/12 08:10:59;;;;;;;4.57;3.55;;;;;;;26.25;26.23;98286.50;5130292;27;20194;-48
2023/04/12 08:13:47;;;;;;;6.38;3.88;;;;;;;25.01;28.15;98285.22;5129897;28;20290;-48
2023/04/12 08:16:33;;;;;;;6.80;4.30;;;;;;;25.01;28.43;98277.25;5125909;27;20198;-49
2023/04/12 08:19:23;;;;;;;7.65;4.35;;;;;;;25.79;28.16;98277.50;5130267;28;20198;-50
2023/04/12 08:22:22;;;;;;;4.25;3.70;;;;;;;26.09;28.04;98283.06;5130055;28;20198;-50
2023/04/12 08:25:21;;;;;;;9.07;4.10;;;;;;;24.35;29.84;98285.22;5130488;28;20197;-50
2023/04/12 08:28:13;;;;;;;7.47;4.13;;;;;;;23.34;30.99;98281.50;5130377;28;20236;-50
2023/04/12 08:31:12;;;;;;;14.65;4.95;;;;;;;21.98;32.88;98270.16;5129254;28;20194;-49
2023/04/12 08:33:59;;;;;;;5.95;4.55;;;;;;;21.11;33.73;98273.00;5129825;28;20190;-50
2023/04/12 08:36:58;;;;;;;5.28;4.15;;;;;;;20.07;35.56;98264.84;5127818;28;20301;-50
2023/04/12 08:39:40;;;;;;;5.15;4.60;;;;;;;19.71;36.17;98246.00;5112393;28;20206;-50
2023/04/12 08:42:33;;;;;;;9.85;5.03;;;;;;;19.37;36.57;98245.38;5108741;28;20198;-50
2023/04/12 08:45:19;;;;;;;8.25;4.95;;;;;;;19.22;37.28;98229.06;5109344;28;20682;-50
2023/04/12 08:48:17;;;;;;;4.68;4.18;;;;;;;19.40;37.29;98258.28;5109255;28;20234;-49
2023/04/12 08:51:12;;;;;;;5.82;4.13;;;;;;;19.46;36.59;98247.22;5108826;28;20199;-57
2023/04/12 08:54:07;;;;;;;11.95;4.35;;;;;;;19.74;36.20;98251.00;5109935;28;20210;-57
2023/04/12 08:57:12;;;;;;;;;;;;;;;;;;;;;
2023/04/12 09:00:13;;;;;;;14.05;4.10;;;;;;;19.37;37.46;98250.63;5120331;28;20582;-58
2023/04/12 09:06:32;;;;;;;11.32;5.03;;;;;;;21.14;35.47;98253.41;5130554;28;20218;-57
2023/04/12 09:09:28;;;;;;;7.63;4.78;;;;;;;22.55;33.04;98253.16;5126519;28;20576;-59
2023/04/12 09:15:44;;;;;;;10.90;4.65;;;;;;;24.01;30.39;98258.72;5129719;28;20202;-58
2023/04/12 09:18:34;;;;;;;16.23;4.53;;;;;;;24.17;29.90;98258.75;5128440;28;20662;-49
2023/04/12 09:21:33;;;;;;;5.13;3.78;;;;;;;25.03;28.95;98246.06;5129096;28;20201;-50
2023/04/12 09:27:09;;;;;;;6.53;4.47;;;;;;;26.56;27.63;98241.28;5128882;27;20194;-50
2023/04/12 09:30:01;;;;;;;9.63;5.05;;;;;;;26.92;27.79;98246.00;5133270;27;20208;-51
2023/04/12 09:33:10;;;;;;;5.40;4.13;;;;;;;27.12;27.23;98236.56;5131914;27;20186;-50
2023/04/12 09:36:13;;;;;;;6.53;4.38;;;;;;;26.32;28.28;98238.75;5133215;27;20684;-50
2023/04/12 09:39:18;;;;;;;5.85;3.67;;;;;;;26.50;28.10;98225.19;5132758;27;20194;-49
2023/04/12 09:42:06;;;;;;;3.72;3.42;;;;;;;26.99;27.50;98225.69;5132688;27;20279;-51
2023/04/12 09:44:55;;;;;;;10.40;4.10;;;;;;;27.23;26.59;98227.28;5119586;27;20267;-50
2023/04/12 09:47:53;;;;;;;9.60;4.18;;;;;;;26.35;26.96;98235.75;5119961;27;20663;-51
2023/04/12 09:50:39;;;;;;;5.00;3.97;;;;;;;26.01;27.43;98212.97;5120070;27;20244;-59
2023/04/12 09:53:28;;;;;;;11.30;3.90;;;;;;;25.01;28.19;98208.22;5119883;27;20222;-60
2023/04/12 09:56:08;;;;;;;5.60;3.55;;;;;;;24.30;28.92;98208.78;5122607;27;20280;-60
2023/04/12 09:58:56;;;;;;;5.47;3.92;;;;;;;23.55;29.60;98184.00;5121843;27;20240;-58
2023/04/12 10:01:29;;;;;;;3.78;3.45;;;;;;;22.81;30.59;98169.44;5120985;27;20186;-58
2023/04/12 10:04:17;;;;;;;6.50;4.93;;;;;;;22.05;31.31;98178.78;5111092;28;20206;-58
2023/04/12 10:07:13;;;;;;;4.25;3.72;;;;;;;21.69;31.49;98183.94;5111193;28;20230;-58
2023/04/12 10:09:56;;;;;;;8.45;3.88;;;;;;;21.18;31.27;98181.78;5110472;28;20190;-58
2023/04/12 10:12:50;;;;;;;5.55;3.33;;;;;;;21.01;30.43;98185.94;5111283;28;20658;-50
2023/04/12 10:15:44;;;;;;;3.83;3.17;;;;;;;20.89;30.63;98175.69;5121579;27;21149;-50
2023/04/12 10:18:25;;;;;;;6.70;4.25;;;;;;;20.62;31.40;98172.00;5120317;27;20209;-51
2023/04/12 10:21:23;;;;;;;4.22;3.50;;;;;;;20.85;31.42;98180.44;5120829;27;20190;-58
2023/04/12 10:24:01;;;;;;;3.67;3.00;;;;;;;20.86;31.19;98182.13;5110741;28;20218;-59
2023/04/12 10:26:54;;;;;;;11.23;3.55;;;;;;;20.95;30.52;98178.63;5111088;28;20194;-57
2023/04/12 10:29:39;;;;;;;3.53;3.25;;;;;;;20.87;30.77;98173.22;5121570;27;20243;-59
2023/04/12 10:32:43;;;;;;;11.02;2.95;;;;;;;20.85;31.14;98174.34;5120331;27;20278;-59
2023/04/12 10:35:26;;;;;;;8.20;3.50;;;;;;;20.73;30.86;98171.03;5118969;27;20197;-59
2023/04/12 10:38:09;;;;;;;2.83;2.63;;;;;;;20.36;31.41;98167.41;5121618;27;20269;-58
2023/04/12 10:41:23;;;;;;;5.20;2.92;;;;;;;19.97;31.64;98140.19;5121809;27;20199;-57
2023/04/12 10:44:38;;;;;;;7.03;3.33;;;;;;;20.11;31.46;98163.47;5120554;27;20221;-50
2023/04/12 10:47:23;;;;;;;4.53;2.67;;;;;;;20.33;30.85;98162.38;5119475;27;20199;-50
2023/04/12 10:50:35;;;;;;;2.63;2.53;;;;;;;20.21;31.26;98159.88;5119722;27;20230;-50
2023/04/12 10:53:58;;;;;;;8.02;2.40;;;;;;;20.06;31.00;98166.53;5119821;27;20191;-50
2023/04/12 10:56:57;;;;;;;10.20;3.95;;;;;;;19.92;30.81;98162.50;5119168;27;20206;-51
2023/04/12 11:00:03;;;;;;;9.43;6.78;;;;;;;19.67;31.43;98154.25;5116023;27;20186;-51
2023/04/12 11:02:50;;;;;;;8.20;2.78;;;;;;;19.56;31.90;98170.97;5120177;27;20199;-50
2023/04/12 11:05:18;;;;;;;3.80;2.50;;;;;;;19.53;32.62;98166.78;5111372;27;20210;-50
2023/04/12 11:07:45;;;;;;;9.30;2.90;;;;;;;19.55;32.86;98182.47;5109678;28;20205;-51
2023/04/12 11:10:20;;;;;;;8.68;2.80;;;;;;;19.54;32.90;98188.69;5110173;27;20281;-49
2023/04/12 11:12:50;;;;;;;8.60;7.70;;;;;;;19.53;33.29;98187.84;5109673;27;20194;-50
2023/04/12 11:15:17;;;;;;;11.18;3.38;;;;;;;19.51;33.59;98184.53;5109601;28;20195;-50
2023/04/12 11:17:54;;;;;;;2.58;2.30;;;;;;;19.48;33.75;98186.56;5110057;27;20198;-51
2023/04/12 11:20:21;;;;;;;4.40;2.20;;;;;;;19.16;33.62;98189.31;5109633;27;20235;-51
2023/04/12 11:22:50;;;;;;;5.78;2.30;;;;;;;18.80;33.01;98187.97;5109701;27;20183;-57
2023/04/12 11:25:53;;;;;;;;;;;;;;;;;;;;;
2023/04/12 11:28:39;;;;;;;4.05;2.88;;;;;;;18.49;33.72;98179.16;5121134;27;20189;-58
2023/04/12 11:31:26;;;;;;;2.35;2.22;;;;;;;18.47;34.15;98187.16;5121088;27;20373;-58
2023/04/12 11:34:19;;;;;;;4.25;2.97;;;;;;;18.68;34.65;98178.50;5120232;27;20248;-59
2023/04/12 11:37:05;;;;;;;3.28;2.83;;;;;;;18.90;34.85;98170.47;5118742;27;20195;-59
2023/04/12 11:39:56;;;;;;;5.82;3.88;;;;;;;19.10;34.93;98171.41;5118713;27;20594;-58
2023/04/12 11:45:46;;;;;;;3.58;3.35;;;;;;;19.18;33.43;98158.47;5116308;27;20214;-58
2023/04/12 11:48:38;;;;;;;3.65;2.17;;;;;;;19.04;32.20;98161.44;5120705;27;20623;-57
2023/04/12 11:51:37;;;;;;;3.10;2.38;;;;;;;19.07;32.13;98167.28;5120287;27;20272;-58
2023/04/12 11:54:26;;;;;;;6.15;3.53;;;;;;;19.06;31.95;98170.03;5108668;28;20518;-59
2023/04/12 11:57:19;;;;;;;4.00;2.50;;;;;;;18.99;32.19;98167.06;5109609;28;20287;-59
2023/04/12 12:00:30;;;;;;;5.93;2.83;;;;;;;18.91;31.44;98171.31;5109517;28;20234;-57
2023/04/12 12:03:20;;;;;;;4.18;2.60;;;;;;;18.93;30.99;98179.91;5109554;28;20190;-58
2023/04/12 12:06:05;;;;;;;2.45;2.30;;;;;;;19.14;31.04;98178.09;5109009;28;20317;-57
2023/04/12 12:08:37;;;;;;;1.98;1.88;;;;;;;19.21;31.69;98181.84;5119839;27;20186;-58
2023/04/12 12:11:16;;;;;;;3.05;1.90;;;;;;;19.29;31.67;98162.81;5118336;27;20225;-58
2023/04/12 12:14:07;;;;;;;2.67;2.47;;;;;;;19.40;31.95;98167.97;5118343;28;20562;-58
2023/04/12 12:17:08;;;;;;;2.45;1.77;;;;;;;19.37;32.05;98169.06;5118437;28;20198;-57
2023/04/12 12:20:05;;;;;;;2.25;2.15;;;;;;;19.50;31.76;98169.72;5116605;28;20284;-58
2023/04/12 12:23:01;;;;;;;6.70;2.42;;;;;;;19.55;31.05;98169.31;5117890;28;20246;-58
2023/04/12 12:25:58;;;;;;;3.30;2.05;;;;;;;19.62;31.00;98157.28;5119521;28;20194;-58
2023/04/12 12:28:36;;;;;;;2.70;2.50;;;;;;;19.64;30.92;98147.44;5118404;28;20205;-57
2023/04/12 12:31:28;;;;;;;4.13;2.38;;;;;;;19.63;29.85;98142.34;5116827;28;20194;-48
2023/04/12 12:34:21;;;;;;;3.92;3.00;;;;;;;19.68;29.25;98145.38;5119458;28;20191;-50
2023/04/12 12:37:14;;;;;;;7.55;3.83;;;;;;;19.79;29.30;98153.16;5116564;28;20282;-49
2023/04/12 12:40:12;;;;;;;3.03;1.80;;;;;;;19.70;28.57;98149.56;5115204;28;20275;-50
2023/04/12 12:43:10;;;;;;;5.85;2.03;;;;;;;19.58;29.20;98156.72;5114341;28;20202;-49
2023/04/12 12:46:02;;;;;;;2.97;2.60;;;;;;;19.52;29.07;98159.91;5117752;28;20197;-51
2023/04/12 12:48:33;;;;;;;2.45;2.33;;;;;;;19.50;29.26;98163.63;5118026;28;20202;-49
2023/04/12 12:51:07;;;;;;;3.40;2.20;;;;;;;19.48;29.37;98171.63;5124424;27;20194;-57
2023/04/12 12:53:44;;;;;;;6.05;3.78;;;;;;;19.44;29.46;98164.94;5119681;28;20253;-57
2023/04/12 12:56:34;;;;;;;9.88;2.92;;;;;;;19.27;28.98;98162.94;5115875;28;20663;-58
2023/04/12 12:59:18;;;;;;;3.08;2.15;;;;;;;19.07;28.58;98166.44;5116006;28;20191;-57
2023/04/12 13:02:09;;;;;;;2.08;1.90;;;;;;;19.05;28.86;98173.63;5114396;28;20264;-58
2023/04/12 13:05:00;;;;;;;3.45;2.08;;;;;;;18.98;28.55;98156.69;5111903;28;20240;-50
2023/04/12 13:07:48;;;;;;;7.43;1.80;;;;;;;18.89;27.71;98155.66;5111879;28;20226;-50
2023/04/12 13:10:32;;;;;;;3.75;2.00;;;;;;;18.80;27.71;98154.66;5109176;28;20209;-51
2023/04/12 13:13:26;;;;;;;5.18;2.45;;;;;;;18.86;28.16;98133.09;5111165;28;20285;-51
2023/04/12 13:16:13;;;;;;;4.38;2.13;;;;;;;19.09;28.23;98148.72;5111970;28;20306;-51
2023/04/12 13:19:09;;;;;;;4.57;1.95;;;;;;;19.32;28.59;98142.31;5112378;28;20202;-50
2023/04/12 13:22:06;;;;;;;3.15;1.58;;;;;;;19.40;28.16;98150.41;5112052;28;20199;-50
2023/04/12 13:25:09;;;;;;;6.28;1.73;;;;;;;19.27;28.03;98149.78;5113216;28;20305;-58
2023/04/12 13:28:03;;;;;;;2.80;1.88;;;;;;;19.13;27.33;98134.34;5112198;28;20204;-58
2023/04/12 13:30:37;;;;;;;3.10;2.85;;;;;;;19.10;27.43;98134.59;5115251;27;20202;-58
2023/04/12 13:33:17;;;;;;;5.93;2.40;;;;;;;18.87;27.55;98144.44;5122965;27;20202;-58
2023/04/12 13:36:01;;;;;;;3.70;3.38;;;;;;;18.70;28.00;98151.13;5119746;27;20229;-51
2023/04/12 13:38:41;;;;;;;8.55;2.00;;;;;;;18.68;27.86;98155.66;5123306;27;20201;-49
2023/04/12 13:41:32;;;;;;;2.42;1.90;;;;;;;18.84;27.86;98166.59;5111714;28;20186;-51
2023/04/12 13:44:07;;;;;;;2.17;1.90;;;;;;;18.89;27.58;98153.03;5113754;27;20737;-51
2023/04/12 13:47:02;;;;;;;1.88;1.60;;;;;;;18.86;27.09;98151.50;5112569;28;20193;-51
2023/04/12 13:49:59;;;;;;;1.60;1.50;;;;;;;18.93;26.86;98158.88;5111989;28;20209;-50